Time;durP1;ratioP1;P1;durP2;ratioP2;P2;SDS_P1;SDS_P2;PMS_P1;PMS_P2;Temp;Humidity;BMP_temperature;BMP_pressure;BME280_temperature;BME280_humidity;BME280_pressure;Samples;Min_cycle;Max_cycle;Signal;HPM_P1;HPM_P2
2023/07/12 00:01:22;;;;;;;10.38;4.63;;;;;;;13.95;82.48;98788.31;5056133;28;20048;-42
2023/07/12 00:03:49;;;;;;;4.53;2.47;;;;;;;13.93;82.43;98785.78;5067912;28;20052;-43
2023/07/12 00:06:21;;;;;;;4.57;2.78;;;;;;;13.92;82.49;98783.31;5066297;28;20067;-42
2023/07/12 00:08:47;;;;;;;4.28;2.10;;;;;;;13.88;82.54;98784.41;5055354;28;20035;-44
2023/07/12 00:11:18;;;;;;;4.88;2.85;;;;;;;13.88;82.43;98784.41;5055159;28;20180;-43
2023/07/12 00:13:45;;;;;;;5.00;2.83;;;;;;;13.89;82.25;98788.69;5058732;28;20087;-44
2023/07/12 00:16:17;;;;;;;3.88;1.98;;;;;;;13.91;82.24;98782.47;5040083;28;20407;-44
2023/07/12 00:18:43;;;;;;;12.93;4.28;;;;;;;13.92;82.31;98780.69;5065510;28;20063;-46
2023/07/12 00:21:11;;;;;;;7.43;2.97;;;;;;;13.99;82.03;98784.59;5063659;28;20516;-47
2023/07/12 00:23:38;;;;;;;8.07;4.18;;;;;;;14.04;81.80;98779.91;5061502;28;20048;-44
2023/07/12 00:26:21;;;;;;;6.53;3.17;;;;;;;14.06;81.58;98785.03;5064386;28;20044;-44
2023/07/12 00:28:47;;;;;;;2.85;1.98;;;;;;;14.08;81.35;98788.41;5065964;28;20036;-40
2023/07/12 00:31:13;;;;;;;4.63;3.15;;;;;;;14.09;81.16;98782.22;5045873;28;20040;-39
2023/07/12 00:33:39;;;;;;;3.40;1.95;;;;;;;13.92;81.21;98754.56;5062790;28;20044;-39
2023/07/12 00:36:31;;;;;;;3.47;1.90;;;;;;;14.06;81.08;98779.81;5061844;28;20110;-38
2023/07/12 00:38:58;;;;;;;2.95;1.85;;;;;;;14.05;81.05;98792.03;5045903;28;20436;-38
2023/07/12 00:41:49;;;;;;;8.70;4.70;;;;;;;14.05;80.90;98778.13;5047487;28;20057;-40
2023/07/12 00:44:21;;;;;;;3.80;1.98;;;;;;;13.99;80.99;98772.34;5040020;28;20139;-41
2023/07/12 00:46:53;;;;;;;8.23;3.08;;;;;;;13.97;81.11;98774.22;5030852;28;20035;-42
2023/07/12 00:49:19;;;;;;;4.82;2.90;;;;;;;13.98;81.42;98772.44;5056084;28;20105;-43
2023/07/12 00:51:47;;;;;;;5.30;3.78;;;;;;;13.94;81.46;98771.81;5062587;28;20036;-42
2023/07/12 00:54:16;;;;;;;2.67;1.60;;;;;;;13.92;81.36;98773.66;5049144;28;20428;-46
2023/07/12 00:56:42;;;;;;;3.22;1.92;;;;;;;13.91;81.60;98771.16;5054346;28;20156;-42
2023/07/12 00:59:17;;;;;;;6.35;2.20;;;;;;;13.90;81.50;98761.66;5051129;28;20040;-42
2023/07/12 01:01:44;;;;;;;2.85;1.98;;;;;;;13.85;81.46;98767.16;5063050;28;20074;-41
2023/07/12 01:04:13;;;;;;;6.57;2.72;;;;;;;13.83;81.55;98768.19;5048882;28;20056;-42
2023/07/12 01:06:39;;;;;;;;;;;;;;;13.78;81.74;98763.25;5045258;28;20072;-43
2023/07/12 01:09:11;;;;;;;7.70;4.55;;;;;;;13.76;81.90;98765.13;5072097;28;19951;-43
2023/07/12 01:11:37;;;;;;;3.40;1.77;;;;;;;13.76;81.99;98767.75;5048393;28;20036;-44
2023/07/12 01:14:12;;;;;;;4.43;1.77;;;;;;;13.76;82.05;98772.13;5055465;28;20037;-43
2023/07/12 01:16:39;;;;;;;4.35;1.98;;;;;;;13.76;81.93;98764.28;5050344;28;20045;-43
2023/07/12 01:19:05;;;;;;;3.15;1.80;;;;;;;13.60;81.63;98743.50;5047407;28;20039;-42
2023/07/12 01:21:33;;;;;;;4.03;1.88;;;;;;;13.76;81.95;98764.28;5066343;28;20050;-42
2023/07/12 01:24:00;;;;;;;7.13;3.72;;;;;;;13.78;81.95;98760.63;5078531;28;20090;-43
2023/07/12 01:26:33;;;;;;;7.38;2.13;;;;;;;13.79;81.70;98757.09;5066092;28;20531;-41
2023/07/12 01:29:00;;;;;;;2.58;1.90;;;;;;;13.82;81.58;98761.25;5066179;28;20512;-46
2023/07/12 01:31:27;;;;;;;4.43;1.70;;;;;;;13.86;81.52;98768.00;5064249;28;20044;-42
2023/07/12 01:33:55;;;;;;;4.97;2.20;;;;;;;13.87;81.15;98754.00;5065852;28;20037;-40
2023/07/12 01:36:21;;;;;;;4.65;2.70;;;;;;;13.87;81.15;98752.22;5065934;28;20044;-42
2023/07/12 01:38:50;;;;;;;5.28;2.28;;;;;;;13.87;80.83;98757.44;5067768;28;20059;-42
2023/07/12 01:41:16;;;;;;;;;;;;;;;13.90;80.40;98754.66;5069741;28;20079;-42
2023/07/12 01:43:43;;;;;;;3.78;1.50;;;;;;;13.87;80.42;98746.16;5052707;28;20312;-41
2023/07/12 01:46:09;;;;;;;3.55;2.00;;;;;;;13.87;80.10;98749.59;5069213;28;20554;-43
2023/07/12 01:48:36;;;;;;;4.28;1.90;;;;;;;13.91;79.89;98750.25;5050792;28;20098;-41
2023/07/12 01:51:03;;;;;;;4.43;2.35;;;;;;;13.76;79.44;98733.78;5046696;28;20043;-43
2023/07/12 01:53:29;;;;;;;4.68;2.00;;;;;;;13.84;79.42;98746.34;5078188;28;20144;-41
2023/07/12 01:56:00;;;;;;;8.88;4.68;;;;;;;13.74;79.95;98747.84;5050910;28;20097;-40
2023/07/12 01:58:26;;;;;;;2.97;1.98;;;;;;;13.65;79.67;98745.81;5047524;28;20508;-40
2023/07/12 02:00:53;;;;;;;4.15;2.20;;;;;;;13.67;79.54;98747.38;5056298;28;20036;-40
2023/07/12 02:03:19;;;;;;;4.68;2.35;;;;;;;13.54;79.61;98718.59;5067736;28;20044;-41
2023/07/12 02:05:47;;;;;;;11.00;4.53;;;;;;;13.52;79.70;98717.00;5051135;28;20047;-40
2023/07/12 02:08:14;;;;;;;3.67;1.80;;;;;;;13.66;79.81;98750.94;5066216;28;20044;-40
2023/07/12 02:10:40;;;;;;;2.92;2.03;;;;;;;13.61;79.83;98734.69;5068492;28;20048;-40
2023/07/12 02:13:07;;;;;;;8.75;3.95;;;;;;;13.57;80.07;98744.50;5049005;28;20500;-39
2023/07/12 02:15:33;;;;;;;4.45;2.38;;;;;;;13.57;80.29;98739.28;5038731;28;20114;-39
2023/07/12 02:18:00;;;;;;;6.07;3.20;;;;;;;13.60;80.39;98738.28;5066922;28;20041;-40
2023/07/12 02:20:26;;;;;;;4.75;2.20;;;;;;;13.65;80.17;98743.22;5068772;28;20040;-40
2023/07/12 02:22:52;;;;;;;2.47;1.92;;;;;;;13.77;80.02;98742.44;5065371;28;20130;-42
2023/07/12 02:25:20;;;;;;;2.25;1.90;;;;;;;13.81;79.73;98741.31;5068762;28;20583;-42
2023/07/12 02:27:47;;;;;;;4.53;1.77;;;;;;;13.78;79.35;98742.34;5066914;28;20127;-41
2023/07/12 02:30:22;;;;;;;4.75;2.40;;;;;;;13.72;78.84;98732.28;5063534;28;20417;-42
2023/07/12 02:32:49;;;;;;;3.30;2.03;;;;;;;13.79;78.35;98735.34;5049211;28;20040;-41
2023/07/12 02:35:16;;;;;;;2.53;1.77;;;;;;;13.71;77.84;98737.59;5022888;28;20037;-41
2023/07/12 02:37:42;;;;;;;7.15;4.05;;;;;;;13.54;77.56;98705.53;5069613;28;20064;-41
2023/07/12 02:40:09;;;;;;;8.02;3.38;;;;;;;13.80;77.61;98739.63;5067904;28;20052;-45
2023/07/12 02:42:36;;;;;;;7.80;2.38;;;;;;;13.81;77.27;98729.09;5068803;28;20044;-40
2023/07/12 02:45:02;;;;;;;3.78;2.03;;;;;;;13.86;77.43;98739.25;5050517;28;20044;-37
2023/07/12 02:47:31;;;;;;;;;;;;;;;13.96;77.09;98735.13;5066283;28;20041;-44
2023/07/12 02:49:57;;;;;;;3.83;2.10;;;;;;;13.90;76.75;98733.75;5045524;28;19949;-41
2023/07/12 02:52:23;;;;;;;6.32;1.95;;;;;;;13.69;76.87;98713.34;5066924;28;20051;-42
2023/07/12 02:54:49;;;;;;;2.95;1.67;;;;;;;13.84;76.46;98728.91;5068636;28;20036;-42
2023/07/12 02:57:16;;;;;;;7.60;2.10;;;;;;;13.91;76.27;98726.75;5068683;28;20047;-40
2023/07/12 02:59:42;;;;;;;2.85;1.70;;;;;;;13.97;76.10;98724.56;5065277;28;20032;-41
2023/07/12 03:02:09;;;;;;;3.33;1.75;;;;;;;13.92;75.82;98729.25;5048497;28;20048;-42
2023/07/12 03:04:36;;;;;;;4.80;2.33;;;;;;;13.71;75.25;98693.22;5057233;28;20412;-40
2023/07/12 03:07:02;;;;;;;5.50;2.00;;;;;;;14.04;75.27;98721.56;5033529;28;20139;-53
2023/07/12 03:09:28;;;;;;;6.68;1.95;;;;;;;14.15;74.83;98719.94;5066404;28;20538;-52
2023/07/12 03:11:54;;;;;;;2.60;1.80;;;;;;;14.12;74.29;98717.53;5067289;28;20492;-43
2023/07/12 03:14:21;;;;;;;4.05;1.95;;;;;;;14.00;74.21;98705.25;5064868;28;20162;-47
2023/07/12 03:16:47;;;;;;;2.30;1.65;;;;;;;14.23;73.98;98736.00;5063397;28;20064;-55
2023/07/12 03:19:16;;;;;;;2.40;1.65;;;;;;;14.04;73.47;98696.28;5062642;28;20139;-51
2023/07/12 03:21:42;;;;;;;2.95;1.85;;;;;;;14.33;73.25;98725.78;5063873;28;20068;-42
2023/07/12 03:24:09;;;;;;;4.43;1.77;;;;;;;14.44;73.30;98720.72;5058895;28;20090;-41
2023/07/12 03:26:35;;;;;;;2.20;1.63;;;;;;;14.54;73.14;98718.34;5067681;28;20032;-42
2023/07/12 03:29:02;;;;;;;2.90;1.42;;;;;;;14.61;72.64;98714.34;5066817;28;20035;-42
2023/07/12 03:31:29;;;;;;;5.25;1.90;;;;;;;14.65;72.50;98716.69;5067004;28;20534;-43
2023/07/12 03:33:55;;;;;;;2.30;1.50;;;;;;;14.57;72.01;98718.97;5052590;28;20112;-59
2023/07/12 03:36:24;;;;;;;5.65;2.03;;;;;;;14.63;71.78;98726.41;5034293;28;20040;-54
2023/07/12 03:38:51;;;;;;;1.63;1.52;;;;;;;14.61;71.63;98722.22;5063429;28;20561;-46
2023/07/12 03:41:20;;;;;;;2.38;1.70;;;;;;;14.58;71.20;98717.19;5067591;28;20056;-46
2023/07/12 03:43:46;;;;;;;3.00;1.90;;;;;;;14.70;70.94;98717.22;5062551;28;20562;-44
2023/07/12 03:46:12;;;;;;;2.47;1.20;;;;;;;14.66;70.57;98720.13;5065836;28;20040;-49
2023/07/12 03:48:39;;;;;;;2.63;1.92;;;;;;;14.62;70.29;98713.44;5067100;28;20044;-50
2023/07/12 03:51:06;;;;;;;2.80;1.65;;;;;;;14.75;70.39;98724.78;5040676;28;20251;-49
2023/07/12 03:53:32;;;;;;;5.30;2.00;;;;;;;14.64;69.62;98693.25;5049476;28;21498;-45
2023/07/12 03:56:03;;;;;;;2.75;1.77;;;;;;;14.85;69.68;98712.75;5046408;28;20090;-42
2023/07/12 03:58:32;;;;;;;2.65;1.50;;;;;;;14.73;68.93;98683.00;5050532;28;20044;-41
2023/07/12 04:01:01;;;;;;;6.05;1.73;;;;;;;14.77;68.68;98686.25;5066280;28;20126;-47
2023/07/12 04:03:27;;;;;;;5.80;1.90;;;;;;;15.03;68.52;98714.09;5066063;28;20052;-45
2023/07/12 04:05:53;;;;;;;2.45;1.70;;;;;;;15.11;67.99;98710.97;5064528;28;20040;-45
2023/07/12 04:08:20;;;;;;;3.70;2.22;;;;;;;14.93;67.67;98662.50;5065338;28;20036;-49
2023/07/12 04:10:53;;;;;;;2.58;1.98;;;;;;;15.20;67.11;98703.31;5065515;28;20447;-46
2023/07/12 04:13:21;;;;;;;3.78;2.05;;;;;;;15.40;66.71;98701.09;5049575;28;20052;-46
2023/07/12 04:15:47;;;;;;;3.53;1.90;;;;;;;15.59;66.21;98702.38;5064459;28;20050;-42
2023/07/12 04:18:13;;;;;;;3.70;2.05;;;;;;;15.76;65.86;98700.31;5043946;28;20080;-43
2023/07/12 04:20:39;;;;;;;4.30;2.22;;;;;;;15.87;65.59;98703.03;5057398;28;20397;-41
2023/07/12 04:23:06;;;;;;;5.32;2.42;;;;;;;15.75;65.11;98710.00;5026958;28;20101;-43
2023/07/12 04:25:35;;;;;;;4.93;2.20;;;;;;;15.80;65.13;98704.44;5067304;28;20040;-44
2023/07/12 04:28:01;;;;;;;4.05;2.95;;;;;;;15.53;64.45;98673.16;5047399;28;20070;-45
2023/07/12 04:30:27;;;;;;;3.65;2.70;;;;;;;15.50;64.04;98675.94;5067184;28;20413;-43
2023/07/12 04:32:52;;;;;;;4.28;3.05;;;;;;;15.72;63.92;98704.97;5048512;28;20055;-43
2023/07/12 04:35:19;;;;;;;7.00;2.72;;;;;;;15.78;63.45;98698.44;5064482;28;20090;-43
2023/07/12 04:37:47;;;;;;;4.72;3.00;;;;;;;15.62;62.84;98675.97;5074306;28;20067;-43
2023/07/12 04:40:13;;;;;;;7.18;4.50;;;;;;;15.75;62.85;98709.16;5065692;28;20040;-47
2023/07/12 04:42:40;;;;;;;3.80;3.15;;;;;;;15.97;62.86;98707.50;5065855;28;20043;-48
2023/07/12 04:45:06;;;;;;;5.53;3.25;;;;;;;16.06;62.46;98700.78;5044032;28;20036;-49
2023/07/12 04:47:32;;;;;;;5.53;3.10;;;;;;;16.24;62.33;98701.22;5065754;28;20801;-45
2023/07/12 04:49:58;;;;;;;4.53;3.22;;;;;;;16.21;61.54;98704.91;5062940;28;20032;-44
2023/07/12 04:52:24;;;;;;;6.43;3.13;;;;;;;16.15;61.45;98701.88;5064021;28;20043;-47
2023/07/12 04:54:56;;;;;;;8.18;4.00;;;;;;;16.22;61.32;98706.59;5049266;28;20098;-44
2023/07/12 04:57:22;;;;;;;5.18;3.45;;;;;;;16.07;60.85;98705.88;5074887;28;20084;-45
2023/07/12 04:59:48;;;;;;;9.52;5.45;;;;;;;15.88;60.51;98704.69;5063692;28;20037;-45
2023/07/12 05:02:14;;;;;;;10.73;4.40;;;;;;;15.80;60.20;98709.66;5064580;28;20050;-44
2023/07/12 05:04:40;;;;;;;5.72;4.10;;;;;;;15.47;60.58;98678.78;5066935;28;20032;-44
2023/07/12 05:07:09;;;;;;;6.45;3.95;;;;;;;15.74;60.43;98691.75;5046847;28;20036;-50
2023/07/12 05:09:36;;;;;;;5.90;5.00;;;;;;;15.70;60.64;98669.34;5063328;28;20086;-45
2023/07/12 05:12:03;;;;;;;8.48;5.63;;;;;;;15.84;60.88;98698.00;5029284;28;20142;-46
2023/07/12 05:14:29;;;;;;;7.70;4.18;;;;;;;15.91;60.95;98704.50;5070024;28;20076;-47
2023/07/12 05:16:55;;;;;;;5.63;4.30;;;;;;;16.07;60.94;98703.25;5066569;28;20567;-44
2023/07/12 05:19:20;;;;;;;6.63;5.15;;;;;;;16.08;60.74;98685.75;5066813;28;20544;-47
2023/07/12 05:21:47;;;;;;;11.18;5.30;;;;;;;16.21;60.55;98706.69;5069476;28;20106;-46
2023/07/12 05:24:13;;;;;;;11.05;5.88;;;;;;;16.20;60.86;98708.47;5070532;28;20039;-45
2023/07/12 05:26:39;;;;;;;8.18;4.82;;;;;;;16.31;60.52;98703.28;5051830;28;20040;-45
2023/07/12 05:29:04;;;;;;;6.90;5.47;;;;;;;16.31;59.84;98677.06;5069253;28;20090;-44
2023/07/12 05:31:31;;;;;;;6.38;4.72;;;;;;;16.37;59.87;98699.38;5068612;28;20554;-44
2023/07/12 05:33:57;;;;;;;7.68;5.10;;;;;;;16.30;59.98;98700.75;5069659;28;20090;-48
2023/07/12 05:36:23;;;;;;;17.90;9.77;;;;;;;16.13;60.00;98674.91;5069701;28;20052;-46
2023/07/12 05:38:49;;;;;;;8.95;4.60;;;;;;;16.05;60.10;98686.81;5069823;28;20037;-45
2023/07/12 05:41:15;;;;;;;6.10;3.95;;;;;;;15.94;60.29;98689.38;5067428;28;20040;-44
2023/07/12 05:43:41;;;;;;;5.68;4.22;;;;;;;16.04;59.93;98692.16;5069073;28;20522;-47
2023/07/12 05:46:07;;;;;;;2.80;2.40;;;;;;;15.85;60.17;98637.63;5068209;28;20040;-44
2023/07/12 05:48:33;;;;;;;4.20;3.03;;;;;;;16.23;59.86;98689.03;5067888;28;20093;-47
2023/07/12 05:51:01;;;;;;;3.28;2.35;;;;;;;16.02;59.68;98684.41;5048389;28;20040;-47
2023/07/12 05:53:27;;;;;;;2.95;2.20;;;;;;;15.77;59.39;98634.72;5061768;28;20053;-44
2023/07/12 05:55:58;;;;;;;2.55;2.30;;;;;;;16.24;59.04;98664.47;5068131;28;20134;-44
2023/07/12 05:58:24;;;;;;;4.05;2.63;;;;;;;16.65;58.81;98677.19;5053324;28;20072;-44
2023/07/12 06:01:00;;;;;;;7.53;2.22;;;;;;;16.50;58.70;98679.97;5078066;28;20538;-44
2023/07/12 06:03:28;;;;;;;3.33;2.42;;;;;;;16.37;58.98;98681.00;5068571;28;20036;-48
2023/07/12 06:05:54;;;;;;;3.63;2.40;;;;;;;16.23;59.36;98675.91;5069201;28;20531;-46
2023/07/12 06:08:21;;;;;;;5.25;2.30;;;;;;;15.95;59.19;98658.75;5057931;28;20060;-45
2023/07/12 06:10:47;;;;;;;4.20;2.30;;;;;;;16.27;59.20;98673.00;5068741;28;20530;-47
2023/07/12 06:13:13;;;;;;;6.68;3.60;;;;;;;16.41;59.18;98674.59;5048609;28;20158;-46
2023/07/12 06:15:39;;;;;;;3.58;2.20;;;;;;;16.67;58.90;98664.78;5034574;28;20139;-45
2023/07/12 06:18:05;;;;;;;3.35;2.08;;;;;;;17.04;58.44;98657.56;5068930;28;20130;-49
2023/07/12 06:20:31;;;;;;;2.92;2.13;;;;;;;17.30;57.51;98662.50;5069301;28;20040;-44
2023/07/12 06:22:57;;;;;;;4.80;2.60;;;;;;;17.43;57.11;98667.59;5067370;28;20040;-43
2023/07/12 06:25:24;;;;;;;5.80;2.47;;;;;;;17.74;57.01;98655.56;5068650;28;20102;-44
2023/07/12 06:27:50;;;;;;;5.00;2.28;;;;;;;17.90;56.48;98657.78;5050378;28;20491;-47
2023/07/12 06:30:17;;;;;;;3.42;2.58;;;;;;;17.65;56.16;98659.72;5048662;28;20076;-46
2023/07/12 06:32:43;;;;;;;3.35;2.80;;;;;;;17.59;56.38;98657.59;5053820;28;20048;-47
2023/07/12 06:35:10;;;;;;;6.28;2.90;;;;;;;17.40;56.79;98654.72;5068748;28;20032;-45
2023/07/12 06:37:35;;;;;;;5.60;3.50;;;;;;;17.32;57.16;98636.91;5068353;28;20041;-47
2023/07/12 06:40:01;;;;;;;4.53;2.50;;;;;;;17.46;57.35;98664.75;5070005;28;20610;-46
2023/07/12 06:42:30;;;;;;;4.70;2.70;;;;;;;17.17;57.66;98638.13;5067288;28;20075;-45
2023/07/12 06:44:57;;;;;;;5.03;2.25;;;;;;;17.04;58.03;98662.81;5051494;28;20044;-47
2023/07/12 06:47:23;;;;;;;4.00;1.90;;;;;;;16.73;58.65;98662.53;5068248;28;20044;-45
2023/07/12 06:49:49;;;;;;;7.60;3.35;;;;;;;16.66;58.41;98666.56;5068493;28;20040;-47
2023/07/12 06:52:16;;;;;;;4.45;1.50;;;;;;;16.98;57.96;98658.03;5068484;28;20048;-48
2023/07/12 06:54:42;;;;;;;3.13;1.60;;;;;;;17.29;57.41;98659.97;5069059;28;20055;-46
2023/07/12 06:57:08;;;;;;;4.82;2.20;;;;;;;17.43;57.02;98664.16;5067880;28;20076;-44
2023/07/12 06:59:34;;;;;;;3.38;1.85;;;;;;;17.56;56.67;98656.97;5068335;28;20093;-47
2023/07/12 07:01:59;;;;;;;1.50;1.40;;;;;;;17.91;56.23;98659.44;5068054;28;20432;-45
2023/07/12 07:04:25;;;;;;;5.38;2.58;;;;;;;18.05;55.90;98652.13;5067028;28;20056;-46
2023/07/12 07:06:51;;;;;;;3.17;2.28;;;;;;;18.61;54.79;98650.09;5051041;28;20098;-45
2023/07/12 07:09:17;;;;;;;4.80;1.70;;;;;;;18.73;54.63;98650.88;5068044;28;20040;-46
2023/07/12 07:11:43;;;;;;;3.03;1.70;;;;;;;19.11;54.12;98658.13;5067882;28;20044;-45
2023/07/12 07:14:09;;;;;;;4.57;2.22;;;;;;;19.78;51.98;98652.34;5067674;28;20500;-44
2023/07/12 07:16:36;;;;;;;3.53;2.45;;;;;;;19.49;51.54;98632.94;5067682;28;20501;-46
2023/07/12 07:19:02;;;;;;;5.93;3.10;;;;;;;19.84;51.39;98657.03;5061112;28;20033;-45
2023/07/12 07:21:28;;;;;;;2.80;1.75;;;;;;;19.35;51.17;98629.69;5065153;28;20099;-47
2023/07/12 07:23:54;;;;;;;3.67;2.55;;;;;;;19.10;51.29;98632.78;5066814;28;20048;-44
2023/07/12 07:26:20;;;;;;;3.55;1.92;;;;;;;19.24;51.04;98645.59;5067930;28;20079;-45
2023/07/12 07:28:47;;;;;;;6.60;2.30;;;;;;;20.27;49.14;98646.13;5067323;28;20028;-49
2023/07/12 07:31:13;;;;;;;3.45;1.88;;;;;;;20.21;48.31;98615.81;5044179;28;20032;-47
2023/07/12 07:33:40;;;;;;;2.35;1.42;;;;;;;20.28;48.70;98645.16;5082865;28;20089;-45
2023/07/12 07:36:08;;;;;;;4.40;1.80;;;;;;;20.22;49.17;98649.19;5065577;28;20040;-45
2023/07/12 07:38:36;;;;;;;3.00;1.60;;;;;;;19.98;49.39;98643.47;5064571;28;20090;-45
2023/07/12 07:41:05;;;;;;;3.30;2.28;;;;;;;19.79;49.84;98641.63;5081829;28;20152;-43
2023/07/12 07:43:31;;;;;;;2.45;1.67;;;;;;;19.45;50.58;98638.50;5065762;28;20051;-47
2023/07/12 07:45:57;;;;;;;4.28;2.78;;;;;;;19.08;51.41;98647.88;5068087;28;20040;-47
2023/07/12 07:48:23;;;;;;;4.70;2.67;;;;;;;18.54;52.08;98609.44;5066144;28;20028;-46
2023/07/12 07:50:49;;;;;;;2.65;1.77;;;;;;;18.61;52.28;98642.19;5041241;28;20053;-49
2023/07/12 07:53:15;;;;;;;2.58;1.40;;;;;;;18.36;52.61;98639.91;5048078;28;20078;-49
2023/07/12 07:55:45;;;;;;;3.17;1.60;;;;;;;18.24;52.49;98640.06;5062447;28;20151;-45
2023/07/12 07:58:12;;;;;;;6.15;1.77;;;;;;;17.91;53.23;98639.22;5063447;28;20082;-48
2023/07/12 08:00:38;;;;;;;4.68;2.60;;;;;;;17.84;53.33;98642.50;5066660;28;20045;-51
2023/07/12 08:03:05;;;;;;;4.20;1.83;;;;;;;17.91;53.39;98644.50;5048736;28;20036;-48
2023/07/12 08:05:31;;;;;;;4.22;2.97;;;;;;;18.01;52.90;98639.31;5035926;28;20070;-44
2023/07/12 08:07:58;;;;;;;5.10;2.10;;;;;;;18.09;52.83;98635.13;5055830;28;20044;-47
2023/07/12 08:10:24;;;;;;;6.00;3.35;;;;;;;18.10;52.98;98642.06;5067002;28;20067;-45
2023/07/12 08:12:51;;;;;;;6.22;3.28;;;;;;;18.24;53.13;98640.06;5066961;28;20044;-44
2023/07/12 08:15:18;;;;;;;5.20;2.80;;;;;;;18.18;53.45;98636.16;5044743;28;20075;-48
2023/07/12 08:17:44;;;;;;;3.85;2.20;;;;;;;17.83;53.84;98606.63;5067113;28;20040;-46
2023/07/12 08:20:11;;;;;;;3.10;1.77;;;;;;;17.84;54.39;98645.13;5065958;28;20044;-46
2023/07/12 08:22:36;;;;;;;3.85;1.83;;;;;;;17.67;54.70;98641.22;5064687;28;20040;-46
2023/07/12 08:25:03;;;;;;;5.05;1.60;;;;;;;17.38;54.78;98645.28;5049335;28;20040;-45
2023/07/12 08:27:31;;;;;;;4.20;2.30;;;;;;;17.24;54.98;98649.81;5068059;28;20031;-43
2023/07/12 08:29:59;;;;;;;5.45;3.30;;;;;;;17.22;55.33;98649.09;5065974;28;20080;-44
2023/07/12 08:32:27;;;;;;;6.93;2.67;;;;;;;17.20;56.07;98656.28;5068752;28;20036;-45
2023/07/12 08:34:54;;;;;;;6.85;3.70;;;;;;;17.05;56.55;98649.59;5047830;28;20041;-47
2023/07/12 08:37:20;;;;;;;11.05;4.80;;;;;;;16.99;57.84;98647.44;5066683;28;20353;-46
2023/07/12 08:39:46;;;;;;;8.98;3.28;;;;;;;16.98;58.26;98651.00;5060222;28;20817;-45
2023/07/12 08:42:15;;;;;;;2.83;1.85;;;;;;;16.81;58.76;98627.81;5052310;28;20086;-47
2023/07/12 08:44:41;;;;;;;3.92;1.83;;;;;;;17.03;58.61;98645.41;5065961;28;20672;-47
2023/07/12 08:47:13;;;;;;;2.92;1.60;;;;;;;17.10;58.98;98654.47;5063692;28;20028;-46
2023/07/12 08:49:38;;;;;;;5.07;2.00;;;;;;;17.14;59.17;98654.13;5069799;28;20056;-47
2023/07/12 08:52:13;;;;;;;14.80;8.30;;;;;;;17.21;59.22;98657.13;5071252;28;20072;-44
2023/07/12 08:54:39;;;;;;;5.38;2.17;;;;;;;17.21;59.09;98660.59;5067889;28;20131;-44
2023/07/12 08:57:18;;;;;;;4.07;2.20;;;;;;;17.24;59.43;98657.72;5070096;28;20048;-45
2023/07/12 08:59:51;;;;;;;5.45;2.58;;;;;;;17.30;59.34;98656.38;5056861;28;20036;-42
2023/07/12 09:02:21;;;;;;;3.80;1.77;;;;;;;17.36;59.86;98662.00;5066172;28;20055;-45
2023/07/12 09:04:47;;;;;;;4.53;1.85;;;;;;;17.42;58.89;98660.69;5071194;28;20129;-46
2023/07/12 09:07:21;;;;;;;6.03;2.17;;;;;;;17.59;58.64;98654.09;5068509;28;20497;-45
2023/07/12 09:09:48;;;;;;;3.92;1.60;;;;;;;17.86;57.70;98665.06;5066130;28;20039;-41
2023/07/12 09:12:36;;;;;;;3.78;1.33;;;;;;;17.94;55.31;98653.94;5046131;28;20177;-44
2023/07/12 09:15:05;;;;;;;3.80;1.65;;;;;;;17.97;54.43;98659.78;5058771;28;20079;-41
2023/07/12 09:17:42;;;;;;;3.63;1.35;;;;;;;18.24;53.80;98655.88;5083079;28;20046;-43
2023/07/12 09:20:26;;;;;;;1.55;1.25;;;;;;;18.16;52.79;98657.31;5070197;28;20078;-43
2023/07/12 09:22:53;;;;;;;3.53;1.33;;;;;;;18.26;52.27;98656.59;5069005;28;20040;-42
2023/07/12 09:25:22;;;;;;;2.65;1.30;;;;;;;18.04;51.79;98655.72;5067735;28;20060;-43
2023/07/12 09:27:48;;;;;;;2.80;1.60;;;;;;;18.09;52.13;98661.44;5069285;28;20043;-42
2023/07/12 09:30:21;;;;;;;1.33;1.17;;;;;;;18.26;52.09;98661.84;5069311;28;20079;-42
2023/07/12 09:32:50;;;;;;;2.20;1.40;;;;;;;18.32;51.84;98635.03;5052914;28;20147;-44
2023/07/12 09:35:28;;;;;;;;;;;;;;;18.78;51.65;98667.13;5069256;28;20040;-42
2023/07/12 09:38:00;;;;;;;1.67;1.23;;;;;;;18.83;50.70;98657.03;5050311;28;19970;-41
2023/07/12 09:40:30;;;;;;;2.83;1.52;;;;;;;19.03;50.00;98660.59;5064200;28;20040;-43
2023/07/12 09:42:57;;;;;;;3.15;1.30;;;;;;;19.34;49.26;98657.00;5070206;28;20400;-42
2023/07/12 09:45:26;;;;;;;4.60;2.63;;;;;;;19.57;49.09;98654.22;5069987;28;20123;-43
2023/07/12 09:48:03;;;;;;;;;;;;;;;19.58;48.84;98661.13;5064490;28;20047;-42
2023/07/12 09:50:45;;;;;;;4.90;1.15;;;;;;;19.50;48.86;98655.72;5049726;28;19956;-43
2023/07/12 09:53:39;;;;;;;5.70;1.30;;;;;;;19.37;48.60;98651.47;5051810;28;20436;-43
2023/07/12 09:56:18;;;;;;;3.15;1.40;;;;;;;19.05;49.33;98642.88;5067170;28;20122;-40
2023/07/12 09:58:50;;;;;;;3.78;1.30;;;;;;;19.00;49.20;98622.19;5049217;28;20075;-42
2023/07/12 10:01:30;;;;;;;5.03;1.60;;;;;;;18.88;49.46;98641.69;5069628;28;20070;-42
2023/07/12 10:03:56;;;;;;;3.53;1.25;;;;;;;18.86;49.85;98646.22;5063673;28;20123;-40
2023/07/12 10:06:32;;;;;;;2.03;1.83;;;;;;;18.58;49.76;98652.97;5050945;28;20072;-39
2023/07/12 10:09:13;;;;;;;1.50;1.30;;;;;;;18.24;50.35;98645.34;5067207;28;20036;-39
2023/07/12 10:12:03;;;;;;;2.35;1.33;;;;;;;18.12;50.50;98624.34;5068173;28;20075;-41
2023/07/12 10:14:37;;;;;;;1.95;1.20;;;;;;;18.27;50.56;98630.13;5070451;28;20036;-39
2023/07/12 10:17:03;;;;;;;3.10;1.88;;;;;;;18.57;50.50;98642.59;5072812;28;20048;-40
2023/07/12 10:19:37;;;;;;;3.15;1.25;;;;;;;18.61;50.25;98638.72;5068619;28;20037;-40
2023/07/12 10:22:20;;;;;;;2.80;1.35;;;;;;;18.61;50.13;98639.56;5068477;28;20047;-42
2023/07/12 10:24:49;;;;;;;2.97;1.55;;;;;;;18.64;50.32;98638.47;5080165;28;20042;-40
2023/07/12 10:27:25;;;;;;;;;;;;;;;18.65;50.20;98644.56;5056543;28;20598;-41
2023/07/12 10:29:57;;;;;;;4.53;1.50;;;;;;;18.67;50.47;98642.66;5066715;28;19977;-40
2023/07/12 10:32:31;;;;;;;4.88;1.70;;;;;;;18.74;50.42;98643.78;5068047;28;20036;-41
2023/07/12 10:35:06;;;;;;;1.33;1.17;;;;;;;18.78;50.44;98650.50;5051758;28;20573;-39
2023/07/12 10:37:46;;;;;;;2.20;1.20;;;;;;;18.52;49.82;98650.00;5068127;28;20099;-40
2023/07/12 10:40:23;;;;;;;3.47;1.30;;;;;;;18.26;49.98;98648.69;5051889;28;20078;-41
2023/07/12 10:42:54;;;;;;;4.10;1.80;;;;;;;17.94;50.36;98610.06;5041801;28;20039;-42
2023/07/12 10:45:29;;;;;;;2.85;1.50;;;;;;;18.27;50.65;98645.06;5069597;28;20040;-41
2023/07/12 10:47:57;;;;;;;2.13;1.20;;;;;;;18.26;50.60;98653.97;5031478;28;20082;-41
2023/07/12 10:50:36;;;;;;;4.57;2.40;;;;;;;18.21;50.33;98643.81;5064189;28;20040;-41
2023/07/12 10:53:05;;;;;;;2.67;1.77;;;;;;;18.36;50.18;98639.91;5073267;28;20143;-41
2023/07/12 10:55:39;;;;;;;3.67;1.30;;;;;;;18.46;50.08;98617.13;5075802;28;20055;-39
2023/07/12 10:58:20;;;;;;;3.55;1.10;;;;;;;19.04;49.55;98643.84;5068363;28;20040;-42
2023/07/12 11:01:12;;;;;;;5.45;1.35;;;;;;;19.44;48.06;98638.59;5085799;28;20044;-40
2023/07/12 11:03:47;;;;;;;1.40;1.05;;;;;;;19.71;47.01;98643.28;5066158;28;20135;-41
2023/07/12 11:06:25;;;;;;;2.63;1.55;;;;;;;20.33;46.31;98648.22;5068611;28;20040;-42
2023/07/12 11:09:01;;;;;;;6.97;1.40;;;;;;;20.81;45.37;98644.72;5060929;28;20045;-41
2023/07/12 11:11:42;;;;;;;1.77;1.23;;;;;;;21.11;44.17;98637.38;5072922;28;20085;-41
2023/07/12 11:14:16;;;;;;;2.08;1.23;;;;;;;21.37;43.62;98642.03;5062952;28;20070;-41
2023/07/12 11:17:06;;;;;;;1.90;1.30;;;;;;;21.29;42.74;98637.50;5065116;28;20040;-42
2023/07/12 11:19:41;;;;;;;5.63;2.15;;;;;;;21.16;43.37;98638.78;5067668;28;20142;-41
2023/07/12 11:22:44;;;;;;;3.00;1.70;;;;;;;20.91;44.05;98634.94;5065560;28;20063;-40
2023/07/12 11:25:37;;;;;;;3.15;1.50;;;;;;;20.55;44.55;98636.56;5061803;28;20047;-41
2023/07/12 11:28:05;;;;;;;3.88;1.20;;;;;;;20.27;44.37;98641.66;5072394;28;20033;-41
2023/07/12 11:30:31;;;;;;;4.97;1.92;;;;;;;20.26;44.65;98631.25;5079541;28;20044;-41
2023/07/12 11:33:04;;;;;;;3.33;1.70;;;;;;;20.08;44.67;98622.38;5069382;28;20056;-41
2023/07/12 11:35:56;;;;;;;2.47;1.42;;;;;;;20.25;44.65;98632.25;5055392;28;20048;-40
2023/07/12 11:38:30;;;;;;;1.70;1.40;;;;;;;20.45;44.41;98633.09;5050414;28;20056;-40
2023/07/12 11:40:58;;;;;;;1.88;1.20;;;;;;;20.64;43.87;98633.06;5049817;28;20064;-41
2023/07/12 11:43:24;;;;;;;1.20;1.10;;;;;;;20.63;43.07;98629.59;5067178;28;20044;-41